DLH409 KRDU-EDDF
Flight info
| Callsign | DLH409 |
|---|---|
| Flight time | N/A |
| Altitude | 37000 |
| Route | HURIC4 FEBEL DCT TYI DCT ORF AR9 ZIBUT/M082F370 DCT DRYED DCT 40N060W/M082F390 43N050W 47N040W 49N030W 50N020W DCT SOMAX DCT ATSUR DCT ARKIL/N0471F390 DCT OXLOW DCT KONAN UL607 SPI T180 NIVNU T847 IMCOM IMCOM1A |
| Aircraft | A333/H-SDE3GHIJ2J3J5M1RVWXY/LB2D1 |
Departure
| Time | N/A |
|---|---|
| Airport | Raleigh-Durham International Airport (KRDU) |
Arrival
| Time | 2026-05-06 01:16 |
|---|---|
| Airport | Frankfurt Main Airport (EDDF) |
| Time | Latitude | Longitude | Altitude | Speed | Heading |
|---|---|---|---|---|---|
| 2026-05-05 23:01 | 50.02564 | -16.95190 | 39238 ft | 493 kts | 88° |
| 2026-05-05 23:02 | 50.02509 | -16.84593 | 39238 ft | 493 kts | 89° |
| 2026-05-05 23:02 | 50.02444 | -16.73930 | 39233 ft | 493 kts | 89° |
| 2026-05-05 23:03 | 50.02369 | -16.63261 | 39239 ft | 493 kts | 89° |
| 2026-05-05 23:03 | 50.02285 | -16.52604 | 39227 ft | 493 kts | 89° |
| 2026-05-05 23:04 | 50.02191 | -16.41952 | 39222 ft | 492 kts | 89° |
| 2026-05-05 23:04 | 50.02087 | -16.31307 | 39222 ft | 492 kts | 89° |
| 2026-05-05 23:05 | 50.01974 | -16.20672 | 39221 ft | 492 kts | 89° |
| 2026-05-05 23:05 | 50.01851 | -16.10021 | 39224 ft | 492 kts | 89° |
| 2026-05-05 23:06 | 50.01718 | -15.99393 | 39219 ft | 492 kts | 89° |
| 2026-05-05 23:06 | 50.01575 | -15.88769 | 39219 ft | 492 kts | 90° |
| 2026-05-05 23:07 | 50.01423 | -15.78132 | 39214 ft | 492 kts | 90° |
| 2026-05-05 23:07 | 50.01261 | -15.67499 | 39211 ft | 492 kts | 90° |
| 2026-05-05 23:08 | 50.01090 | -15.56886 | 39209 ft | 491 kts | 90° |
| 2026-05-05 23:08 | 50.00909 | -15.46272 | 39203 ft | 491 kts | 90° |
| 2026-05-05 23:09 | 50.00718 | -15.35661 | 39203 ft | 491 kts | 90° |
| 2026-05-05 23:09 | 50.00517 | -15.25048 | 39200 ft | 491 kts | 90° |
| 2026-05-05 23:10 | 50.00309 | -15.14515 | 39200 ft | 491 kts | 90° |
| 2026-05-05 23:10 | 50.00089 | -15.03904 | 39197 ft | 490 kts | 90° |
| 2026-05-05 23:11 | 49.99970 | -14.93314 | 39195 ft | 490 kts | 88° |
| 2026-05-05 23:11 | 50.00019 | -14.82724 | 39195 ft | 490 kts | 88° |
| 2026-05-05 23:12 | 50.00078 | -14.72130 | 39201 ft | 490 kts | 88° |
| 2026-05-05 23:12 | 50.00109 | -14.61531 | 39192 ft | 490 kts | 88° |
| 2026-05-05 23:13 | 50.00116 | -14.50961 | 39187 ft | 490 kts | 89° |
| 2026-05-05 23:13 | 50.00111 | -14.40380 | 39186 ft | 489 kts | 89° |
| 2026-05-05 23:14 | 50.00096 | -14.29801 | 39181 ft | 490 kts | 89° |
| 2026-05-05 23:14 | 50.00073 | -14.19219 | 39180 ft | 490 kts | 89° |
| 2026-05-05 23:15 | 50.00040 | -14.08628 | 39179 ft | 489 kts | 89° |
| 2026-05-05 23:15 | 50.00391 | -13.98100 | 39180 ft | 487 kts | 79° |
| 2026-05-05 23:16 | 50.01631 | -13.87749 | 39178 ft | 487 kts | 77° |
| 2026-05-05 23:16 | 50.03034 | -13.77449 | 39177 ft | 487 kts | 76° |
| 2026-05-05 23:17 | 50.04449 | -13.67155 | 39176 ft | 486 kts | 76° |
| 2026-05-05 23:17 | 50.05839 | -13.56858 | 39170 ft | 487 kts | 77° |
| 2026-05-05 23:18 | 50.07210 | -13.46544 | 39170 ft | 487 kts | 77° |
| 2026-05-05 23:18 | 50.08568 | -13.36223 | 39178 ft | 487 kts | 77° |
| 2026-05-05 23:19 | 50.09916 | -13.25903 | 39168 ft | 486 kts | 77° |
| 2026-05-05 23:19 | 50.11257 | -13.15569 | 39167 ft | 486 kts | 77° |
| 2026-05-05 23:20 | 50.12579 | -13.05306 | 39162 ft | 486 kts | 77° |
| 2026-05-05 23:20 | 50.13901 | -12.94965 | 39162 ft | 486 kts | 77° |
| 2026-05-05 23:21 | 50.15214 | -12.84616 | 39160 ft | 486 kts | 77° |
| 2026-05-05 23:21 | 50.16519 | -12.74259 | 39159 ft | 486 kts | 77° |
| 2026-05-05 23:22 | 50.17813 | -12.63903 | 39158 ft | 486 kts | 77° |
| 2026-05-05 23:22 | 50.19097 | -12.53545 | 39154 ft | 486 kts | 77° |
| 2026-05-05 23:23 | 50.20375 | -12.43165 | 39155 ft | 486 kts | 78° |
| 2026-05-05 23:23 | 50.21640 | -12.32800 | 39151 ft | 486 kts | 78° |
| 2026-05-05 23:24 | 50.22888 | -12.22503 | 39148 ft | 486 kts | 78° |
| 2026-05-05 23:24 | 50.24135 | -12.12129 | 39149 ft | 486 kts | 78° |
| 2026-05-05 23:25 | 50.25373 | -12.01751 | 39152 ft | 486 kts | 78° |
| 2026-05-05 23:25 | 50.26601 | -11.91367 | 39141 ft | 486 kts | 78° |
| 2026-05-05 23:26 | 50.27822 | -11.80962 | 39147 ft | 486 kts | 78° |
| 2026-05-05 23:26 | 50.29034 | -11.70548 | 39136 ft | 486 kts | 78° |
| 2026-05-05 23:27 | 50.30235 | -11.60145 | 39132 ft | 486 kts | 78° |
| 2026-05-05 23:27 | 50.31429 | -11.49722 | 39144 ft | 487 kts | 78° |
| 2026-05-05 23:28 | 50.32614 | -11.39283 | 39130 ft | 487 kts | 78° |
| 2026-05-05 23:28 | 50.33782 | -11.28914 | 39124 ft | 487 kts | 79° |
| 2026-05-05 23:29 | 50.34947 | -11.18472 | 39129 ft | 487 kts | 79° |
| 2026-05-05 23:29 | 50.36105 | -11.08019 | 39123 ft | 487 kts | 79° |
| 2026-05-05 23:30 | 50.37253 | -10.97559 | 39128 ft | 487 kts | 79° |
| 2026-05-05 23:30 | 50.38392 | -10.87091 | 39118 ft | 487 kts | 79° |
| 2026-05-05 23:31 | 50.39522 | -10.76611 | 39114 ft | 488 kts | 79° |
| 2026-05-05 23:31 | 50.40642 | -10.66130 | 39116 ft | 487 kts | 79° |
| 2026-05-05 23:32 | 50.41753 | -10.55647 | 39110 ft | 487 kts | 79° |
| 2026-05-05 23:32 | 50.42854 | -10.45162 | 39107 ft | 487 kts | 79° |
| 2026-05-05 23:33 | 50.43946 | -10.34667 | 39110 ft | 487 kts | 79° |
| 2026-05-05 23:33 | 50.45021 | -10.24237 | 39110 ft | 487 kts | 79° |
| 2026-05-05 23:34 | 50.46094 | -10.13737 | 39095 ft | 487 kts | 79° |
| 2026-05-05 23:34 | 50.47157 | -10.03233 | 39090 ft | 487 kts | 80° |
| 2026-05-05 23:35 | 50.48211 | -9.92729 | 39091 ft | 487 kts | 80° |
| 2026-05-05 23:35 | 50.49255 | -9.82215 | 39089 ft | 487 kts | 80° |
| 2026-05-05 23:36 | 50.50290 | -9.71698 | 39092 ft | 487 kts | 80° |
| 2026-05-05 23:36 | 50.51315 | -9.61176 | 39088 ft | 487 kts | 80° |
| 2026-05-05 23:37 | 50.52330 | -9.50658 | 39080 ft | 487 kts | 80° |
| 2026-05-05 23:37 | 50.53337 | -9.40125 | 39079 ft | 487 kts | 81° |
| 2026-05-05 23:38 | 50.54334 | -9.29592 | 39082 ft | 487 kts | 81° |
| 2026-05-05 23:38 | 50.55318 | -9.19084 | 39079 ft | 485 kts | 81° |
| 2026-05-05 23:39 | 50.56289 | -9.08603 | 39074 ft | 484 kts | 81° |
| 2026-05-05 23:39 | 50.57253 | -8.98112 | 39075 ft | 484 kts | 81° |
| 2026-05-05 23:40 | 50.58200 | -8.87686 | 39073 ft | 485 kts | 81° |
| 2026-05-05 23:40 | 50.59144 | -8.77190 | 39070 ft | 485 kts | 81° |
| 2026-05-05 23:41 | 50.60080 | -8.66681 | 39070 ft | 485 kts | 81° |
| 2026-05-05 23:41 | 50.61005 | -8.56167 | 39070 ft | 485 kts | 81° |
| 2026-05-05 23:42 | 50.61923 | -8.45638 | 39067 ft | 485 kts | 82° |
| 2026-05-05 23:42 | 50.62830 | -8.35121 | 39067 ft | 484 kts | 82° |
| 2026-05-05 23:43 | 50.63726 | -8.24610 | 39068 ft | 484 kts | 82° |
| 2026-05-05 23:43 | 50.64612 | -8.14099 | 39067 ft | 484 kts | 82° |
| 2026-05-05 23:44 | 50.65489 | -8.03587 | 39061 ft | 484 kts | 82° |
| 2026-05-05 23:44 | 50.66377 | -7.93142 | 39063 ft | 484 kts | 82° |
| 2026-05-05 23:45 | 50.67301 | -7.82634 | 39065 ft | 484 kts | 82° |
| 2026-05-05 23:45 | 50.68220 | -7.72125 | 39064 ft | 484 kts | 82° |
| 2026-05-05 23:46 | 50.68972 | -7.63390 | 39063 ft | 484 kts | 82° |
| 2026-05-05 23:46 | 50.69866 | -7.52880 | 39063 ft | 484 kts | 82° |
| 2026-05-05 23:47 | 50.70749 | -7.42359 | 39060 ft | 484 kts | 82° |
| 2026-05-05 23:47 | 50.71623 | -7.31844 | 39063 ft | 484 kts | 82° |
| 2026-05-05 23:48 | 50.72487 | -7.21320 | 39057 ft | 484 kts | 82° |
| 2026-05-05 23:48 | 50.73343 | -7.10788 | 39062 ft | 484 kts | 82° |
| 2026-05-05 23:49 | 50.74189 | -7.00252 | 39059 ft | 484 kts | 82° |
| 2026-05-05 23:49 | 50.75024 | -6.89724 | 39061 ft | 483 kts | 82° |
| 2026-05-05 23:50 | 50.75850 | -6.79197 | 39056 ft | 483 kts | 83° |
| 2026-05-05 23:50 | 50.76666 | -6.68665 | 39059 ft | 483 kts | 83° |
| 2026-05-05 23:51 | 50.77472 | -6.58134 | 39056 ft | 483 kts | 83° |
| 2026-05-05 23:51 | 50.78271 | -6.47583 | 39057 ft | 483 kts | 83° |
| 2026-05-05 23:52 | 50.79054 | -6.37101 | 39054 ft | 484 kts | 83° |
| 2026-05-05 23:52 | 50.79834 | -6.26537 | 39056 ft | 484 kts | 83° |
| 2026-05-05 23:53 | 50.80603 | -6.15977 | 39050 ft | 484 kts | 83° |
| 2026-05-05 23:53 | 50.81364 | -6.05395 | 39050 ft | 484 kts | 83° |
| 2026-05-05 23:54 | 50.82117 | -5.94799 | 39050 ft | 486 kts | 83° |
| 2026-05-05 23:54 | 50.82861 | -5.84189 | 39047 ft | 485 kts | 83° |
| 2026-05-05 23:55 | 50.83595 | -5.73572 | 39043 ft | 485 kts | 83° |
| 2026-05-05 23:55 | 50.84320 | -5.62953 | 39044 ft | 485 kts | 83° |
| 2026-05-05 23:56 | 50.85030 | -5.52400 | 39037 ft | 485 kts | 83° |
| 2026-05-05 23:56 | 50.85735 | -5.41775 | 39029 ft | 485 kts | 83° |
| 2026-05-05 23:57 | 50.86431 | -5.31142 | 39035 ft | 485 kts | 84° |
| 2026-05-05 23:57 | 50.87118 | -5.20502 | 39030 ft | 486 kts | 84° |
| 2026-05-05 23:58 | 50.87794 | -5.09867 | 39027 ft | 485 kts | 84° |
| 2026-05-05 23:58 | 50.88461 | -4.99227 | 39026 ft | 486 kts | 84° |
| 2026-05-05 23:59 | 50.89119 | -4.88576 | 39030 ft | 486 kts | 84° |
| 2026-05-05 23:59 | 50.89767 | -4.77911 | 39029 ft | 486 kts | 84° |
| 2026-05-06 00:00 | 50.90406 | -4.67250 | 39025 ft | 486 kts | 84° |
| 2026-05-06 00:00 | 50.91034 | -4.56596 | 39023 ft | 486 kts | 84° |
| 2026-05-06 00:01 | 50.91653 | -4.45933 | 39022 ft | 486 kts | 84° |
| 2026-05-06 00:01 | 50.92261 | -4.35278 | 39021 ft | 485 kts | 84° |
| 2026-05-06 00:02 | 50.92860 | -4.24619 | 39012 ft | 485 kts | 84° |
| 2026-05-06 00:02 | 50.93449 | -4.13963 | 39016 ft | 484 kts | 85° |
| 2026-05-06 00:03 | 50.94020 | -4.03447 | 39017 ft | 481 kts | 85° |
| 2026-05-06 00:03 | 50.94585 | -3.92873 | 39003 ft | 481 kts | 85° |
| 2026-05-06 00:04 | 50.95141 | -3.82296 | 39012 ft | 481 kts | 85° |
| 2026-05-06 00:04 | 50.95687 | -3.71709 | 39005 ft | 481 kts | 85° |
| 2026-05-06 00:05 | 50.96488 | -3.55827 | 39002 ft | 482 kts | 85° |
| 2026-05-06 00:06 | 50.97011 | -3.45232 | 38996 ft | 482 kts | 85° |
| 2026-05-06 00:06 | 50.97524 | -3.34629 | 38990 ft | 482 kts | 85° |
| 2026-05-06 00:07 | 50.98027 | -3.24028 | 38993 ft | 482 kts | 85° |
| 2026-05-06 00:07 | 50.98522 | -3.13410 | 39000 ft | 482 kts | 86° |
| 2026-05-06 00:08 | 50.99003 | -3.02862 | 38996 ft | 482 kts | 86° |
| 2026-05-06 00:08 | 50.99481 | -2.92174 | 38989 ft | 482 kts | 86° |
| 2026-05-06 00:09 | 50.99944 | -2.81619 | 38998 ft | 482 kts | 86° |
| 2026-05-06 00:09 | 51.00400 | -2.70991 | 38991 ft | 483 kts | 86° |
| 2026-05-06 00:10 | 51.00846 | -2.60362 | 38993 ft | 483 kts | 86° |
| 2026-05-06 00:10 | 51.01283 | -2.49729 | 38992 ft | 482 kts | 86° |
| 2026-05-06 00:11 | 51.01710 | -2.39094 | 38993 ft | 482 kts | 86° |
| 2026-05-06 00:11 | 51.02127 | -2.28461 | 38979 ft | 483 kts | 86° |
| 2026-05-06 00:12 | 51.02535 | -2.17812 | 38982 ft | 483 kts | 86° |
| 2026-05-06 00:12 | 51.02934 | -2.07164 | 38965 ft | 483 kts | 86° |
| 2026-05-06 00:13 | 51.03333 | -1.96507 | 38972 ft | 483 kts | 86° |
| 2026-05-06 00:13 | 51.03767 | -1.85862 | 38964 ft | 483 kts | 86° |
| 2026-05-06 00:14 | 51.04202 | -1.75215 | 38973 ft | 483 kts | 86° |
| 2026-05-06 00:14 | 51.04625 | -1.64578 | 38965 ft | 482 kts | 86° |
| 2026-05-06 00:15 | 51.05034 | -1.53933 | 38969 ft | 482 kts | 86° |
| 2026-05-06 00:15 | 51.05429 | -1.43363 | 38967 ft | 482 kts | 86° |
| 2026-05-06 00:16 | 51.05818 | -1.32722 | 38964 ft | 482 kts | 87° |
| 2026-05-06 00:16 | 51.06197 | -1.22080 | 38970 ft | 482 kts | 87° |
| 2026-05-06 00:17 | 51.06566 | -1.11440 | 38959 ft | 482 kts | 87° |
| 2026-05-06 00:17 | 51.06926 | -1.00791 | 38970 ft | 482 kts | 87° |
| 2026-05-06 00:18 | 51.07277 | -0.90144 | 38981 ft | 482 kts | 87° |
| 2026-05-06 00:18 | 51.07617 | -0.79497 | 38983 ft | 482 kts | 87° |
| 2026-05-06 00:19 | 51.07948 | -0.68846 | 38976 ft | 482 kts | 88° |
| 2026-05-06 00:19 | 51.08268 | -0.58200 | 38979 ft | 482 kts | 88° |
| 2026-05-06 00:20 | 51.08578 | -0.47620 | 38972 ft | 482 kts | 88° |
| 2026-05-06 00:20 | 51.08879 | -0.36967 | 38968 ft | 482 kts | 88° |
| 2026-05-06 00:21 | 51.09171 | -0.26313 | 38973 ft | 482 kts | 88° |
| 2026-05-06 00:21 | 51.09449 | -0.15825 | 38965 ft | 482 kts | 88° |
| 2026-05-06 00:22 | 51.09722 | -0.05168 | 38962 ft | 482 kts | 88° |
| 2026-05-06 00:22 | 51.09983 | 0.05402 | 39039 ft | 482 kts | 88° |
| 2026-05-06 00:23 | 51.10237 | 0.16054 | 39075 ft | 482 kts | 88° |
| 2026-05-06 00:23 | 51.10480 | 0.26701 | 39113 ft | 482 kts | 88° |
| 2026-05-06 00:24 | 51.10714 | 0.37355 | 39126 ft | 482 kts | 89° |
| 2026-05-06 00:24 | 51.10939 | 0.48012 | 39119 ft | 482 kts | 89° |
| 2026-05-06 00:25 | 51.11153 | 0.58668 | 39113 ft | 482 kts | 89° |
| 2026-05-06 00:25 | 51.11357 | 0.69251 | 39078 ft | 481 kts | 89° |
| 2026-05-06 00:26 | 51.11552 | 0.79899 | 39034 ft | 481 kts | 89° |
| 2026-05-06 00:26 | 51.11737 | 0.90558 | 38993 ft | 481 kts | 89° |
| 2026-05-06 00:27 | 51.11914 | 1.01214 | 38959 ft | 482 kts | 90° |
| 2026-05-06 00:27 | 51.12080 | 1.11878 | 38955 ft | 482 kts | 90° |
| 2026-05-06 00:28 | 51.12237 | 1.22557 | 38958 ft | 482 kts | 90° |
| 2026-05-06 00:28 | 51.12384 | 1.33235 | 38950 ft | 482 kts | 90° |
| 2026-05-06 00:29 | 51.12521 | 1.43917 | 38942 ft | 482 kts | 90° |
| 2026-05-06 00:29 | 51.12648 | 1.54514 | 38932 ft | 482 kts | 90° |
| 2026-05-06 00:30 | 51.12765 | 1.65194 | 38937 ft | 482 kts | 91° |
| 2026-05-06 00:30 | 51.12873 | 1.75871 | 38929 ft | 482 kts | 90° |
| 2026-05-06 00:31 | 51.12972 | 1.86555 | 38929 ft | 483 kts | 90° |
| 2026-05-06 00:31 | 51.13057 | 1.97233 | 38935 ft | 482 kts | 92° |
| 2026-05-06 00:32 | 51.12672 | 2.07828 | 38936 ft | 479 kts | 96° |
| 2026-05-06 00:32 | 51.12125 | 2.18392 | 38930 ft | 479 kts | 97° |
| 2026-05-06 00:33 | 51.11536 | 2.28953 | 38902 ft | 479 kts | 97° |
| 2026-05-06 00:33 | 51.10941 | 2.39514 | 38904 ft | 479 kts | 96° |
| 2026-05-06 00:34 | 51.10342 | 2.50086 | 38898 ft | 480 kts | 96° |
| 2026-05-06 00:34 | 51.09735 | 2.60673 | 38899 ft | 481 kts | 97° |
| 2026-05-06 00:35 | 51.08402 | 2.71039 | 38893 ft | 478 kts | 107° |
| 2026-05-06 00:35 | 51.06935 | 2.79505 | 38892 ft | 478 kts | 107° |
| 2026-05-06 00:36 | 51.05075 | 2.89642 | 38904 ft | 478 kts | 108° |
| 2026-05-06 00:36 | 51.03199 | 2.99771 | 38904 ft | 478 kts | 108° |
| 2026-05-06 00:37 | 51.01325 | 3.09909 | 38893 ft | 478 kts | 108° |
| 2026-05-06 00:37 | 50.99451 | 3.20044 | 38885 ft | 478 kts | 108° |
| 2026-05-06 00:38 | 50.97572 | 3.30163 | 38871 ft | 478 kts | 108° |
| 2026-05-06 00:38 | 50.95682 | 3.40279 | 38870 ft | 478 kts | 108° |
| 2026-05-06 00:39 | 50.93782 | 3.50391 | 38868 ft | 478 kts | 108° |
| 2026-05-06 00:39 | 50.91874 | 3.60490 | 38871 ft | 478 kts | 108° |
| 2026-05-06 00:40 | 50.89950 | 3.70578 | 38870 ft | 478 kts | 108° |
| 2026-05-06 00:40 | 50.88005 | 3.80649 | 38866 ft | 478 kts | 109° |
| 2026-05-06 00:41 | 50.86051 | 3.90708 | 38867 ft | 478 kts | 109° |
| 2026-05-06 00:41 | 50.84089 | 4.00766 | 38865 ft | 478 kts | 109° |
| 2026-05-06 00:42 | 50.82119 | 4.10815 | 38862 ft | 478 kts | 109° |
| 2026-05-06 00:42 | 50.80142 | 4.20853 | 38855 ft | 478 kts | 109° |
| 2026-05-06 00:43 | 50.78169 | 4.30813 | 38855 ft | 478 kts | 109° |
| 2026-05-06 00:43 | 50.76175 | 4.40831 | 38856 ft | 478 kts | 109° |
| 2026-05-06 00:44 | 50.74173 | 4.50838 | 38857 ft | 478 kts | 109° |
| 2026-05-06 00:44 | 50.72166 | 4.60837 | 38856 ft | 478 kts | 109° |
| 2026-05-06 00:45 | 50.70208 | 4.70862 | 38845 ft | 478 kts | 109° |
| 2026-05-06 00:45 | 50.68272 | 4.80878 | 38846 ft | 477 kts | 109° |
| 2026-05-06 00:46 | 50.66325 | 4.90877 | 38837 ft | 477 kts | 109° |
| 2026-05-06 00:46 | 50.64313 | 5.00845 | 38835 ft | 477 kts | 110° |
| 2026-05-06 00:47 | 50.62262 | 5.10769 | 38829 ft | 477 kts | 110° |
| 2026-05-06 00:47 | 50.60201 | 5.20693 | 38828 ft | 477 kts | 110° |
| 2026-05-06 00:48 | 50.58137 | 5.30614 | 38823 ft | 477 kts | 110° |
| 2026-05-06 00:48 | 50.56069 | 5.40520 | 38810 ft | 477 kts | 110° |
| 2026-05-06 00:49 | 50.54006 | 5.50356 | 38813 ft | 477 kts | 110° |
| 2026-05-06 00:49 | 50.51920 | 5.60251 | 38795 ft | 477 kts | 110° |
| 2026-05-06 00:50 | 50.49952 | 5.70205 | 38801 ft | 478 kts | 108° |
| 2026-05-06 00:50 | 50.48098 | 5.80238 | 38795 ft | 479 kts | 108° |
| 2026-05-06 00:51 | 50.46239 | 5.90287 | 38802 ft | 479 kts | 108° |
| 2026-05-06 00:51 | 50.45298 | 5.95312 | 38671 ft | 481 kts | 108° |
| 2026-05-06 00:51 | 50.44348 | 6.00353 | 38155 ft | 482 kts | 108° |
| 2026-05-06 00:51 | 50.43393 | 6.05390 | 37464 ft | 482 kts | 108° |
| 2026-05-06 00:52 | 50.42435 | 6.10421 | 36819 ft | 481 kts | 108° |
| 2026-05-06 00:52 | 50.41478 | 6.15435 | 36235 ft | 479 kts | 108° |
| 2026-05-06 00:52 | 50.40524 | 6.20421 | 35671 ft | 476 kts | 108° |
| 2026-05-06 00:52 | 50.39573 | 6.25379 | 35115 ft | 474 kts | 108° |
| 2026-05-06 00:53 | 50.38626 | 6.30301 | 34558 ft | 471 kts | 108° |
| 2026-05-06 00:53 | 50.37681 | 6.35198 | 34000 ft | 468 kts | 108° |
| 2026-05-06 00:53 | 50.36797 | 6.40084 | 33375 ft | 466 kts | 103° |
| 2026-05-06 00:53 | 50.36263 | 6.45083 | 32549 ft | 467 kts | 99° |
| 2026-05-06 00:54 | 50.35867 | 6.50140 | 31609 ft | 470 kts | 98° |
| 2026-05-06 00:54 | 50.35521 | 6.55246 | 30670 ft | 473 kts | 97° |
| 2026-05-06 00:54 | 50.35200 | 6.60379 | 29760 ft | 475 kts | 97° |
| 2026-05-06 00:54 | 50.34886 | 6.65534 | 28731 ft | 476 kts | 97° |
| 2026-05-06 00:55 | 50.34574 | 6.70622 | 27873 ft | 474 kts | 97° |
| 2026-05-06 00:55 | 50.34258 | 6.75730 | 27132 ft | 470 kts | 96° |
| 2026-05-06 00:55 | 50.33946 | 6.80798 | 26388 ft | 466 kts | 96° |
| 2026-05-06 00:55 | 50.33452 | 6.85786 | 25668 ft | 461 kts | 105° |
| 2026-05-06 00:56 | 50.32367 | 6.90468 | 24939 ft | 457 kts | 114° |
| 2026-05-06 00:56 | 50.31054 | 6.94967 | 24319 ft | 451 kts | 116° |
| 2026-05-06 00:56 | 50.29723 | 6.99378 | 23637 ft | 447 kts | 116° |
| 2026-05-06 00:56 | 50.28397 | 7.03772 | 22828 ft | 445 kts | 116° |
| 2026-05-06 00:57 | 50.27086 | 7.08128 | 22069 ft | 442 kts | 116° |
| 2026-05-06 00:57 | 50.25788 | 7.12449 | 21317 ft | 438 kts | 116° |
| 2026-05-06 00:57 | 50.24500 | 7.16738 | 20597 ft | 434 kts | 116° |
| 2026-05-06 00:57 | 50.23222 | 7.20992 | 19861 ft | 431 kts | 116° |
| 2026-05-06 00:58 | 50.21953 | 7.25208 | 19149 ft | 427 kts | 116° |
| 2026-05-06 00:58 | 50.20694 | 7.29388 | 18440 ft | 424 kts | 116° |
| 2026-05-06 00:58 | 50.19484 | 7.33576 | 17701 ft | 422 kts | 113° |
| 2026-05-06 00:58 | 50.18436 | 7.37825 | 16910 ft | 419 kts | 112° |
| 2026-05-06 00:59 | 50.17429 | 7.42073 | 16185 ft | 415 kts | 112° |
| 2026-05-06 00:59 | 50.16436 | 7.46272 | 15482 ft | 411 kts | 112° |
| 2026-05-06 00:59 | 50.15450 | 7.50423 | 14890 ft | 404 kts | 112° |
| 2026-05-06 00:59 | 50.14481 | 7.54485 | 14382 ft | 396 kts | 112° |
| 2026-05-06 01:00 | 50.13526 | 7.58470 | 13867 ft | 390 kts | 113° |
| 2026-05-06 01:00 | 50.12583 | 7.62398 | 13341 ft | 384 kts | 113° |
| 2026-05-06 01:00 | 50.11642 | 7.66277 | 12808 ft | 381 kts | 114° |
| 2026-05-06 01:00 | 50.10435 | 7.69913 | 12479 ft | 376 kts | 125° |
| 2026-05-06 01:01 | 50.08993 | 7.73293 | 12226 ft | 374 kts | 127° |
| 2026-05-06 01:01 | 50.07517 | 7.76615 | 11938 ft | 372 kts | 127° |
| 2026-05-06 01:01 | 50.06041 | 7.79914 | 11651 ft | 371 kts | 127° |
| 2026-05-06 01:01 | 50.04567 | 7.83201 | 11363 ft | 370 kts | 127° |
| 2026-05-06 01:02 | 50.03102 | 7.86480 | 11066 ft | 368 kts | 127° |
| 2026-05-06 01:02 | 50.01653 | 7.89753 | 10835 ft | 367 kts | 125° |
| 2026-05-06 01:02 | 50.00530 | 7.93322 | 10682 ft | 370 kts | 109° |
| 2026-05-06 01:02 | 50.00226 | 7.97293 | 10562 ft | 374 kts | 87° |
| 2026-05-06 01:03 | 50.00804 | 8.01243 | 10455 ft | 375 kts | 72° |
| 2026-05-06 01:03 | 50.01701 | 8.05000 | 10347 ft | 376 kts | 69° |
| 2026-05-06 01:03 | 50.02664 | 8.08824 | 10230 ft | 375 kts | 69° |
| 2026-05-06 01:03 | 50.03611 | 8.12606 | 10114 ft | 375 kts | 69° |
| 2026-05-06 01:04 | 50.04524 | 8.16294 | 9991 ft | 363 kts | 70° |
| 2026-05-06 01:04 | 50.05416 | 8.19927 | 9895 ft | 346 kts | 70° |
| 2026-05-06 01:04 | 50.06239 | 8.23300 | 9791 ft | 331 kts | 70° |
| 2026-05-06 01:04 | 50.07035 | 8.26576 | 9666 ft | 318 kts | 70° |
| 2026-05-06 01:05 | 50.07801 | 8.29740 | 9514 ft | 307 kts | 70° |
| 2026-05-06 01:05 | 50.08548 | 8.32832 | 9465 ft | 305 kts | 70° |
| 2026-05-06 01:05 | 50.09295 | 8.35931 | 9408 ft | 306 kts | 70° |
| 2026-05-06 01:05 | 50.10042 | 8.39036 | 9325 ft | 306 kts | 70° |
| 2026-05-06 01:06 | 50.10796 | 8.42176 | 9234 ft | 305 kts | 70° |
| 2026-05-06 01:06 | 50.11539 | 8.45273 | 9173 ft | 305 kts | 70° |
| 2026-05-06 01:06 | 50.12278 | 8.48357 | 9066 ft | 303 kts | 70° |
| 2026-05-06 01:06 | 50.13012 | 8.51426 | 8978 ft | 302 kts | 70° |
| 2026-05-06 01:07 | 50.13744 | 8.54489 | 8895 ft | 302 kts | 70° |
| 2026-05-06 01:07 | 50.14474 | 8.57553 | 8795 ft | 301 kts | 70° |
| 2026-05-06 01:07 | 50.15204 | 8.60617 | 8704 ft | 301 kts | 70° |
| 2026-05-06 01:07 | 50.15931 | 8.63673 | 8618 ft | 301 kts | 70° |
| 2026-05-06 01:08 | 50.16658 | 8.66731 | 8343 ft | 302 kts | 70° |
| 2026-05-06 01:08 | 50.17387 | 8.69803 | 7948 ft | 300 kts | 70° |
| 2026-05-06 01:08 | 50.18110 | 8.72847 | 7569 ft | 298 kts | 70° |
| 2026-05-06 01:08 | 50.18825 | 8.75864 | 7226 ft | 296 kts | 70° |
| 2026-05-06 01:09 | 50.19537 | 8.78878 | 6818 ft | 295 kts | 71° |
| 2026-05-06 01:09 | 50.20009 | 8.81962 | 6486 ft | 291 kts | 86° |
| 2026-05-06 01:09 | 50.19837 | 8.85063 | 6094 ft | 286 kts | 109° |
| 2026-05-06 01:09 | 50.18878 | 8.87715 | 5704 ft | 278 kts | 137° |
| 2026-05-06 01:10 | 50.17295 | 8.89216 | 5500 ft | 261 kts | 167° |
| 2026-05-06 01:10 | 50.15561 | 8.89431 | 5379 ft | 243 kts | 194° |
| 2026-05-06 01:10 | 50.14071 | 8.88413 | 5271 ft | 229 kts | 215° |
| 2026-05-06 01:10 | 50.12893 | 8.86849 | 5151 ft | 218 kts | 232° |
| 2026-05-06 01:11 | 50.12118 | 8.84882 | 5068 ft | 209 kts | 245° |
| 2026-05-06 01:11 | 50.11580 | 8.82827 | 4942 ft | 203 kts | 249° |
| 2026-05-06 01:11 | 50.11098 | 8.80719 | 4495 ft | 212 kts | 249° |
| 2026-05-06 01:11 | 50.10569 | 8.78469 | 3854 ft | 228 kts | 249° |
| 2026-05-06 01:12 | 50.10013 | 8.76125 | 3428 ft | 232 kts | 249° |
| 2026-05-06 01:12 | 50.09465 | 8.73833 | 3122 ft | 230 kts | 249° |
| 2026-05-06 01:12 | 50.08915 | 8.71525 | 2849 ft | 220 kts | 249° |
| 2026-05-06 01:12 | 50.08412 | 8.69416 | 2570 ft | 202 kts | 249° |
| 2026-05-06 01:13 | 50.07943 | 8.67447 | 2320 ft | 187 kts | 249° |
| 2026-05-06 01:13 | 50.07509 | 8.65627 | 2084 ft | 172 kts | 249° |
| 2026-05-06 01:13 | 50.07108 | 8.63943 | 1849 ft | 159 kts | 248° |
| 2026-05-06 01:13 | 50.06740 | 8.62403 | 1659 ft | 143 kts | 248° |
| 2026-05-06 01:14 | 50.06094 | 8.59701 | 1284 ft | 130 kts | 247° |
| 2026-05-06 01:14 | 50.05780 | 8.58381 | 1092 ft | 131 kts | 248° |
| 2026-05-06 01:14 | 50.05465 | 8.57062 | 906 ft | 130 kts | 247° |
| 2026-05-06 01:15 | 50.05150 | 8.55745 | 733 ft | 130 kts | 248° |
| 2026-05-06 01:15 | 50.04837 | 8.54431 | 563 ft | 129 kts | 247° |
| 2026-05-06 01:15 | 50.04527 | 8.53132 | 386 ft | 127 kts | 246° |
| 2026-05-06 01:15 | 50.04239 | 8.51946 | 353 ft | 105 kts | 251° |
| 2026-05-06 01:16 | 50.04050 | 8.51170 | 331 ft | 48 kts | 240° |
| 2026-05-06 01:16 | 50.03921 | 8.50932 | 326 ft | 24 kts | 221° |
| 2026-05-06 01:16 | 50.03798 | 8.50853 | 332 ft | 11 kts | 159° |
| 2026-05-06 01:16 | 50.03785 | 8.50892 | 333 ft | 8 kts | 88° |
| 2026-05-06 01:17 | 50.03831 | 8.51147 | 336 ft | 29 kts | 63° |
| 2026-05-06 01:17 | 50.03906 | 8.51447 | 337 ft | 30 kts | 70° |
| 2026-05-06 01:17 | 50.03978 | 8.51758 | 338 ft | 31 kts | 70° |
| 2026-05-06 01:17 | 50.04055 | 8.52073 | 353 ft | 36 kts | 69° |
| 2026-05-06 01:18 | 50.04171 | 8.52562 | 358 ft | 59 kts | 69° |
| 2026-05-06 01:18 | 50.04325 | 8.53201 | 371 ft | 63 kts | 69° |
| 2026-05-06 01:18 | 50.04415 | 8.53822 | 379 ft | 57 kts | 83° |
| 2026-05-06 01:18 | 50.04449 | 8.54423 | 376 ft | 55 kts | 96° |
| 2026-05-06 01:19 | 50.04214 | 8.54826 | 363 ft | 53 kts | 164° |
| 2026-05-06 01:19 | 50.04020 | 8.55032 | 361 ft | 11 kts | 85° |
| 2026-05-06 01:19 | 50.04057 | 8.55182 | 363 ft | 33 kts | 69° |
| 2026-05-06 01:19 | 50.04152 | 8.55574 | 359 ft | 40 kts | 70° |
| 2026-05-06 01:20 | 50.04216 | 8.55841 | 366 ft | 39 kts | 67° |
| 2026-05-06 01:20 | 50.04464 | 8.55930 | 367 ft | 25 kts | 17° |
| 2026-05-06 01:20 | 50.04564 | 8.56005 | 367 ft | 20 kts | 51° |
| 2026-05-06 01:20 | 50.04604 | 8.56168 | 368 ft | 16 kts | 70° |
| 2026-05-06 01:21 | 50.04650 | 8.56368 | 366 ft | 21 kts | 72° |
| 2026-05-06 01:21 | 50.04700 | 8.56525 | 368 ft | 7 kts | 24° |
| 2026-05-06 01:21 | 50.04747 | 8.56512 | 365 ft | 7 kts | 341° |
| 2026-05-06 01:21 | 50.04783 | 8.56492 | 367 ft | 0 kts | 340° |